Time;durP1;ratioP1;P1;durP2;ratioP2;P2;SDS_P1;SDS_P2;PMS_P1;PMS_P2;Temp;Humidity;BMP_temperature;BMP_pressure;BME280_temperature;BME280_humidity;BME280_pressure;Samples;Min_cycle;Max_cycle;Signal;HPM_P1;HPM_P2
2021/08/15 00:00:06;;;;;;;11.77;10.43;;;;;;;;;;5111528;28;20447;-72
2021/08/15 00:02:33;;;;;;;11.77;10.37;;;;;;;;;;5110650;28;20479;-72
2021/08/15 00:05:01;;;;;;;12.20;11.00;;;;;;;;;;5114901;28;20558;-72
2021/08/15 00:07:29;;;;;;;10.83;9.80;;;;;;;;;;5114774;28;20441;-72
2021/08/15 00:09:56;;;;;;;11.80;10.60;;;;;;;;;;5115232;28;20442;-72
2021/08/15 00:12:24;;;;;;;11.33;9.43;;;;;;;;;;5114737;28;20440;-72
2021/08/15 00:14:51;;;;;;;12.27;9.73;;;;;;;;;;5113893;28;21009;-72
2021/08/15 00:17:18;;;;;;;12.10;9.50;;;;;;;;;;5114854;28;20555;-72
2021/08/15 00:19:45;;;;;;;10.87;9.73;;;;;;;;;;5114012;28;20559;-72
2021/08/15 00:22:12;;;;;;;12.00;10.80;;;;;;;;;;5114336;28;20556;-72
2021/08/15 00:24:41;;;;;;;10.53;9.60;;;;;;;;;;5113771;28;20435;-72
2021/08/15 00:27:08;;;;;;;11.67;8.33;;;;;;;;;;5115044;28;20863;-73
2021/08/15 00:29:35;;;;;;;10.53;9.43;;;;;;;;;;5113977;28;20942;-72
2021/08/15 00:32:02;;;;;;;11.10;10.00;;;;;;;;;;5114370;28;20574;-71
2021/08/15 00:34:30;;;;;;;11.47;10.27;;;;;;;;;;5113684;28;20440;-71
2021/08/15 00:36:57;;;;;;;11.63;8.83;;;;;;;;;;5114181;28;20462;-72
2021/08/15 00:39:24;;;;;;;12.10;9.27;;;;;;;;;;5114237;28;20446;-72
2021/08/15 00:41:52;;;;;;;11.30;10.20;;;;;;;;;;5113513;28;20472;-72
2021/08/15 00:44:20;;;;;;;10.77;9.03;;;;;;;;;;5114338;28;20439;-72
2021/08/15 00:46:49;;;;;;;11.27;10.13;;;;;;;;;;5113675;28;20566;-71
2021/08/15 00:49:16;;;;;;;10.70;9.60;;;;;;;;;;5114056;28;20452;-71
2021/08/15 00:51:43;;;;;;;10.23;9.30;;;;;;;;;;5113590;28;20466;-72
2021/08/15 00:54:10;;;;;;;10.67;9.13;;;;;;;;;;5114387;28;20477;-72
2021/08/15 00:56:38;;;;;;;10.90;9.80;;;;;;;;;;5114022;28;20558;-72
2021/08/15 00:59:07;;;;;;;16.00;10.17;;;;;;;;;;5113471;28;20445;-72
2021/08/15 01:01:34;;;;;;;9.53;8.63;;;;;;;;;;5113039;28;20526;-72
2021/08/15 01:04:03;;;;;;;9.97;9.03;;;;;;;;;;5113859;28;20479;-72
2021/08/15 01:06:31;;;;;;;12.13;10.60;;;;;;;;;;5113165;28;20475;-72
2021/08/15 01:08:58;;;;;;;13.77;9.33;;;;;;;;;;5113320;28;20452;-72
2021/08/15 01:11:25;;;;;;;10.53;9.43;;;;;;;;;;5113195;28;20448;-72
2021/08/15 01:13:52;;;;;;;10.00;8.83;;;;;;;;;;5112668;28;20912;-71
2021/08/15 01:16:21;;;;;;;14.80;9.53;;;;;;;;;;5112729;28;21012;-72
2021/08/15 01:18:48;;;;;;;10.70;9.60;;;;;;;;;;5113184;28;20527;-71
2021/08/15 01:21:15;;;;;;;10.23;8.83;;;;;;;;;;5113559;28;20834;-72
2021/08/15 01:23:43;;;;;;;11.80;10.70;;;;;;;;;;5112898;28;20515;-71
2021/08/15 01:26:11;;;;;;;10.13;9.07;;;;;;;;;;5113937;28;20494;-72
2021/08/15 01:28:40;;;;;;;13.60;10.40;;;;;;;;;;5112764;28;20436;-71
2021/08/15 01:31:08;;;;;;;12.07;9.23;;;;;;;;;;5113365;28;20805;-71
2021/08/15 01:33:36;;;;;;;11.03;9.97;;;;;;;;;;5112548;28;20526;-71
2021/08/15 01:36:04;;;;;;;10.90;9.40;;;;;;;;;;5112914;28;20458;-72
2021/08/15 01:38:32;;;;;;;13.30;10.10;;;;;;;;;;5113204;28;20446;-72
2021/08/15 01:40:59;;;;;;;11.73;9.20;;;;;;;;;;5113393;28;20838;-72
2021/08/15 01:43:28;;;;;;;11.90;9.60;;;;;;;;;;5113055;28;20447;-72
2021/08/15 01:45:57;;;;;;;11.87;9.83;;;;;;;;;;5112299;28;20467;-72
2021/08/15 01:48:24;;;;;;;11.27;9.67;;;;;;;;;;5113065;28;20812;-72
2021/08/15 01:50:51;;;;;;;10.53;9.43;;;;;;;;;;5112893;28;20931;-72
2021/08/15 01:53:19;;;;;;;11.33;9.07;;;;;;;;;;5112842;28;20960;-72
2021/08/15 01:55:47;;;;;;;11.00;9.70;;;;;;;;;;5112955;28;20435;-72
2021/08/15 01:58:16;;;;;;;11.07;9.90;;;;;;;;;;5112880;28;20943;-73
2021/08/15 02:00:43;;;;;;;9.77;8.87;;;;;;;;;;5112339;28;20443;-72
2021/08/15 02:03:12;;;;;;;10.03;9.03;;;;;;;;;;5112776;28;21007;-72
2021/08/15 02:05:40;;;;;;;11.40;9.87;;;;;;;;;;5112269;28;20467;-72
2021/08/15 02:08:07;;;;;;;11.10;9.90;;;;;;;;;;5113013;28;20450;-72
2021/08/15 02:10:34;;;;;;;11.17;9.40;;;;;;;;;;5111713;28;20436;-71
2021/08/15 02:13:03;;;;;;;14.87;9.47;;;;;;;;;;5113394;28;20431;-72
2021/08/15 02:15:31;;;;;;;11.47;9.87;;;;;;;;;;5112997;28;20447;-72
2021/08/15 02:17:59;;;;;;;10.10;9.10;;;;;;;;;;5111413;28;20940;-71
2021/08/15 02:20:29;;;;;;;11.60;10.40;;;;;;;;;;5112227;28;20849;-72
2021/08/15 02:22:56;;;;;;;10.23;9.10;;;;;;;;;;5111157;28;20427;-72
2021/08/15 02:25:23;;;;;;;10.80;9.60;;;;;;;;;;5105718;28;20513;-74
2021/08/15 02:27:51;;;;;;;10.33;9.33;;;;;;;;;;5109658;28;20435;-71
2021/08/15 02:30:19;;;;;;;10.73;9.63;;;;;;;;;;5112223;28;20490;-71
2021/08/15 02:32:46;;;;;;;11.53;10.20;;;;;;;;;;5111378;28;20442;-71
2021/08/15 02:35:14;;;;;;;11.30;10.20;;;;;;;;;;5111531;28;20444;-71
2021/08/15 02:37:44;;;;;;;15.70;9.50;;;;;;;;;;5110233;28;20444;-71
2021/08/15 02:40:12;;;;;;;11.03;10.03;;;;;;;;;;5112531;28;20517;-72
2021/08/15 02:42:40;;;;;;;11.93;10.73;;;;;;;;;;5111333;28;20519;-71
2021/08/15 02:45:08;;;;;;;9.83;8.67;;;;;;;;;;5112022;28;20443;-71
2021/08/15 02:47:36;;;;;;;11.20;9.60;;;;;;;;;;5110936;28;20481;-71
2021/08/15 02:50:03;;;;;;;10.50;9.30;;;;;;;;;;5110829;28;20454;-71
2021/08/15 02:52:30;;;;;;;10.90;9.80;;;;;;;;;;5111724;28;20448;-72
2021/08/15 02:55:01;;;;;;;10.53;8.70;;;;;;;;;;5110955;28;20446;-71
2021/08/15 02:57:28;;;;;;;11.57;10.30;;;;;;;;;;5111335;28;20471;-72
2021/08/15 02:59:55;;;;;;;14.23;10.23;;;;;;;;;;5110878;28;20452;-72
2021/08/15 03:02:22;;;;;;;10.03;9.00;;;;;;;;;;5111240;28;20527;-72
2021/08/15 03:04:50;;;;;;;11.60;8.50;;;;;;;;;;5111226;28;20440;-71
2021/08/15 03:07:17;;;;;;;14.20;9.23;;;;;;;;;;5111749;28;20477;-72
2021/08/15 03:09:45;;;;;;;11.70;9.93;;;;;;;;;;5111030;28;20449;-72
2021/08/15 03:12:14;;;;;;;11.80;9.90;;;;;;;;;;5111537;28;20444;-72
2021/08/15 03:14:41;;;;;;;11.33;8.90;;;;;;;;;;5110781;28;20529;-72
2021/08/15 03:17:09;;;;;;;11.03;9.30;;;;;;;;;;5111224;28;20527;-72
2021/08/15 03:19:36;;;;;;;10.80;9.80;;;;;;;;;;5111643;28;20534;-72
2021/08/15 03:22:03;;;;;;;10.93;9.70;;;;;;;;;;5111524;28;20499;-72
2021/08/15 03:24:30;;;;;;;10.83;9.70;;;;;;;;;;5111401;28;20531;-72
2021/08/15 03:26:57;;;;;;;10.63;8.87;;;;;;;;;;5110828;28;21033;-72
2021/08/15 03:29:26;;;;;;;10.97;9.87;;;;;;;;;;5111142;28;21011;-71
2021/08/15 03:31:55;;;;;;;12.27;9.73;;;;;;;;;;5110548;28;20505;-72
2021/08/15 03:34:22;;;;;;;12.37;9.60;;;;;;;;;;5111635;28;21001;-72
2021/08/15 03:36:49;;;;;;;10.67;9.57;;;;;;;;;;5110671;28;20995;-71
2021/08/15 03:39:17;;;;;;;12.83;9.93;;;;;;;;;;5114877;28;20482;-72
2021/08/15 03:41:44;;;;;;;10.77;9.67;;;;;;;;;;5116258;28;20482;-71
2021/08/15 03:44:12;;;;;;;11.73;10.03;;;;;;;;;;5117191;28;20935;-71
2021/08/15 03:46:41;;;;;;;12.60;9.93;;;;;;;;;;5116671;28;20451;-71
2021/08/15 03:49:08;;;;;;;10.13;8.80;;;;;;;;;;5114818;28;20447;-71
2021/08/15 03:51:35;;;;;;;10.10;9.00;;;;;;;;;;5114801;28;20969;-71
2021/08/15 03:54:02;;;;;;;12.30;9.73;;;;;;;;;;5114711;28;20839;-71
2021/08/15 03:56:29;;;;;;;9.60;8.60;;;;;;;;;;5114455;28;20477;-71
2021/08/15 03:58:56;;;;;;;10.90;9.40;;;;;;;;;;5114284;28;20440;-71
2021/08/15 04:01:24;;;;;;;11.03;9.87;;;;;;;;;;5114273;28;20462;-71
2021/08/15 04:03:52;;;;;;;11.43;10.00;;;;;;;;;;5114458;28;20556;-71
2021/08/15 04:06:22;;;;;;;11.23;9.30;;;;;;;;;;5114706;28;20437;-71
2021/08/15 04:08:50;;;;;;;11.70;10.30;;;;;;;;;;5114239;28;20429;-71
2021/08/15 04:11:18;;;;;;;12.53;9.30;;;;;;;;;;5114474;28;20451;-71
2021/08/15 04:13:45;;;;;;;11.20;10.03;;;;;;;;;;5113828;28;20442;-72
2021/08/15 04:16:12;;;;;;;11.17;9.93;;;;;;;;;;5114043;28;20475;-71
2021/08/15 04:18:39;;;;;;;13.07;10.73;;;;;;;;;;5113972;28;20443;-71
2021/08/15 04:21:08;;;;;;;11.80;10.27;;;;;;;;;;5114454;28;21052;-71
2021/08/15 04:23:35;;;;;;;11.10;9.97;;;;;;;;;;5114503;28;20446;-72
2021/08/15 04:26:02;;;;;;;10.30;9.10;;;;;;;;;;5113646;28;20478;-71
2021/08/15 04:28:30;;;;;;;11.43;9.20;;;;;;;;;;5113972;28;20446;-71
2021/08/15 04:30:57;;;;;;;11.30;9.77;;;;;;;;;;5113067;28;20450;-72
2021/08/15 04:33:25;;;;;;;11.10;10.10;;;;;;;;;;5114010;28;20527;-72
2021/08/15 04:35:52;;;;;;;13.10;9.33;;;;;;;;;;5113570;28;20436;-73
2021/08/15 04:38:21;;;;;;;10.53;9.43;;;;;;;;;;5114130;28;20443;-72
2021/08/15 04:40:50;;;;;;;10.73;9.23;;;;;;;;;;5113725;28;20454;-72
2021/08/15 04:43:18;;;;;;;14.50;10.10;;;;;;;;;;5113635;28;20504;-72
2021/08/15 04:45:46;;;;;;;9.10;8.30;;;;;;;;;;5113263;28;20456;-71
2021/08/15 04:48:14;;;;;;;12.80;9.90;;;;;;;;;;5113675;28;20534;-72
2021/08/15 04:50:41;;;;;;;12.83;10.77;;;;;;;;;;5112985;28;20452;-72
2021/08/15 04:53:08;;;;;;;13.73;9.40;;;;;;;;;;5114008;28;20443;-72
2021/08/15 04:55:37;;;;;;;10.57;9.67;;;;;;;;;;5113695;28;20440;-72
2021/08/15 04:58:04;;;;;;;12.57;10.60;;;;;;;;;;5113074;28;20849;-72
2021/08/15 05:00:32;;;;;;;13.13;10.17;;;;;;;;;;5113662;28;20445;-72
2021/08/15 05:02:59;;;;;;;9.70;8.90;;;;;;;;;;5112863;28;20452;-72
2021/08/15 05:05:26;;;;;;;11.00;9.90;;;;;;;;;;5113323;28;20446;-72
2021/08/15 05:07:53;;;;;;;10.37;9.40;;;;;;;;;;5112706;28;20458;-72
2021/08/15 05:10:21;;;;;;;11.27;10.03;;;;;;;;;;5113320;28;20446;-72
2021/08/15 05:12:49;;;;;;;11.70;9.00;;;;;;;;;;5112791;28;20817;-72
2021/08/15 05:15:16;;;;;;;11.23;9.67;;;;;;;;;;5113146;28;20446;-72
2021/08/15 05:17:44;;;;;;;10.00;9.00;;;;;;;;;;5113380;28;20471;-72
2021/08/15 05:20:11;;;;;;;10.73;9.70;;;;;;;;;;5113096;28;20546;-72
2021/08/15 05:22:38;;;;;;;11.87;9.40;;;;;;;;;;5113026;28;20436;-72
2021/08/15 05:25:06;;;;;;;16.10;10.00;;;;;;;;;;5112144;28;20446;-72
2021/08/15 05:27:33;;;;;;;12.30;10.47;;;;;;;;;;5113097;28;20447;-73
2021/08/15 05:30:02;;;;;;;10.97;9.87;;;;;;;;;;5112381;28;20440;-73
2021/08/15 05:32:29;;;;;;;10.70;9.60;;;;;;;;;;5112589;28;20435;-72
2021/08/15 05:34:57;;;;;;;11.17;9.93;;;;;;;;;;5112288;28;20479;-73
2021/08/15 05:37:24;;;;;;;11.40;10.33;;;;;;;;;;5112393;28;20979;-72
2021/08/15 05:39:51;;;;;;;10.97;9.30;;;;;;;;;;5112009;28;20436;-73
2021/08/15 05:42:18;;;;;;;12.50;9.93;;;;;;;;;;5112776;28;20446;-72
2021/08/15 05:44:46;;;;;;;10.17;9.27;;;;;;;;;;5112472;28;20451;-72
2021/08/15 05:47:14;;;;;;;10.53;9.53;;;;;;;;;;5112366;28;20466;-72
2021/08/15 05:49:41;;;;;;;10.13;9.23;;;;;;;;;;5112651;28;20454;-72
2021/08/15 05:52:08;;;;;;;11.77;10.43;;;;;;;;;;5112033;28;20526;-72
2021/08/15 05:54:36;;;;;;;13.93;9.80;;;;;;;;;;5112560;28;20889;-72
2021/08/15 05:57:03;;;;;;;14.10;11.53;;;;;;;;;;5111851;28;20562;-72
2021/08/15 05:59:30;;;;;;;13.23;10.60;;;;;;;;;;5112186;28;20440;-73
2021/08/15 06:01:57;;;;;;;12.73;9.47;;;;;;;;;;5111127;28;20451;-72
2021/08/15 06:04:26;;;;;;;11.57;10.33;;;;;;;;;;5112424;28;20448;-72
2021/08/15 06:06:53;;;;;;;13.57;11.53;;;;;;;;;;5111623;28;20519;-73
2021/08/15 06:09:20;;;;;;;12.97;11.67;;;;;;;;;;5112625;28;20459;-72
2021/08/15 06:11:47;;;;;;;12.87;11.47;;;;;;;;;;5111876;28;20454;-73
2021/08/15 06:14:15;;;;;;;14.07;11.87;;;;;;;;;;5112090;28;20439;-73
2021/08/15 06:16:42;;;;;;;11.67;10.47;;;;;;;;;;5112204;28;20447;-72
2021/08/15 06:19:09;;;;;;;11.13;10.03;;;;;;;;;;5111392;28;20455;-72
2021/08/15 06:21:38;;;;;;;12.87;11.20;;;;;;;;;;5112000;28;20491;-72
2021/08/15 06:24:05;;;;;;;12.73;11.33;;;;;;;;;;5111739;28;20446;-73
2021/08/15 06:26:33;;;;;;;13.03;11.43;;;;;;;;;;5112192;28;20442;-73
2021/08/15 06:29:00;;;;;;;11.83;10.73;;;;;;;;;;5111633;28;20439;-72
2021/08/15 06:31:27;;;;;;;13.87;11.77;;;;;;;;;;5111360;28;20550;-72
2021/08/15 06:33:54;;;;;;;20.57;11.80;;;;;;;;;;5110716;28;20531;-72
2021/08/15 06:36:21;;;;;;;15.50;11.70;;;;;;;;;;5111566;28;20441;-71
2021/08/15 06:38:50;;;;;;;11.90;10.20;;;;;;;;;;5100551;28;20532;-72
2021/08/15 06:41:17;;;;;;;11.77;10.60;;;;;;;;;;5111774;28;20974;-72
2021/08/15 06:43:45;;;;;;;12.60;10.30;;;;;;;;;;5111662;28;20863;-71
2021/08/15 06:46:12;;;;;;;13.93;9.83;;;;;;;;;;5110861;28;20869;-72
2021/08/15 06:48:40;;;;;;;12.03;10.80;;;;;;;;;;5111701;28;20506;-72
2021/08/15 06:51:07;;;;;;;13.30;10.70;;;;;;;;;;5111425;28;20440;-72
2021/08/15 06:53:36;;;;;;;11.10;10.00;;;;;;;;;;5111871;28;20449;-72
2021/08/15 06:56:06;;;;;;;11.83;10.57;;;;;;;;;;5110615;28;20471;-72
2021/08/15 06:58:33;;;;;;;12.10;10.90;;;;;;;;;;5111220;28;20471;-71
2021/08/15 07:01:00;;;;;;;14.27;10.10;;;;;;;;;;5110944;28;20447;-71
2021/08/15 07:03:27;;;;;;;12.80;11.30;;;;;;;;;;5111450;28;20448;-71
2021/08/15 07:05:55;;;;;;;11.87;10.70;;;;;;;;;;5110345;28;20467;-72
2021/08/15 07:08:22;;;;;;;11.60;10.40;;;;;;;;;;5111503;28;20443;-71
2021/08/15 07:10:49;;;;;;;11.27;10.23;;;;;;;;;;5111153;28;20439;-72
2021/08/15 07:13:22;;;;;;;10.97;9.87;;;;;;;;;;5112545;28;20568;-71
2021/08/15 07:15:49;;;;;;;12.03;10.80;;;;;;;;;;5115145;28;20520;-71
2021/08/15 07:18:17;;;;;;;12.43;10.40;;;;;;;;;;5115425;28;20487;-72
2021/08/15 07:20:44;;;;;;;10.63;9.20;;;;;;;;;;5114997;28;20574;-72
2021/08/15 07:23:11;;;;;;;11.83;9.87;;;;;;;;;;5114757;28;20435;-73
2021/08/15 07:25:38;;;;;;;10.67;9.67;;;;;;;;;;5115461;28;20446;-72
2021/08/15 07:28:06;;;;;;;11.83;9.37;;;;;;;;;;5114993;28;20542;-72
2021/08/15 07:30:34;;;;;;;12.70;11.40;;;;;;;;;;5115128;28;20810;-72
2021/08/15 07:33:03;;;;;;;10.80;9.70;;;;;;;;;;5114452;28;20527;-73
2021/08/15 07:35:32;;;;;;;12.83;11.53;;;;;;;;;;5115207;28;20438;-73
2021/08/15 07:37:59;;;;;;;14.23;12.90;;;;;;;;;;5114719;28;20482;-72
2021/08/15 07:40:27;;;;;;;13.30;11.97;;;;;;;;;;5114972;28;20974;-72
2021/08/15 07:42:54;;;;;;;14.20;11.17;;;;;;;;;;5116218;28;20443;-73
2021/08/15 07:45:22;;;;;;;12.77;11.40;;;;;;;;;;5116624;28;20451;-72
2021/08/15 07:47:51;;;;;;;13.73;12.53;;;;;;;;;;5116180;28;20951;-72
2021/08/15 07:50:19;;;;;;;12.70;11.47;;;;;;;;;;5114400;28;20959;-72
2021/08/15 07:52:46;;;;;;;14.40;11.50;;;;;;;;;;5115074;28;20475;-72
2021/08/15 07:55:13;;;;;;;13.00;11.20;;;;;;;;;;5114300;28;20446;-72
2021/08/15 07:57:40;;;;;;;13.70;11.03;;;;;;;;;;5114964;28;20471;-72
2021/08/15 08:00:08;;;;;;;12.40;11.20;;;;;;;;;;5114140;28;20475;-72
2021/08/15 08:02:35;;;;;;;12.10;10.90;;;;;;;;;;5114178;28;20527;-72
2021/08/15 08:05:04;;;;;;;16.00;12.50;;;;;;;;;;5114753;28;20780;-73
2021/08/15 08:07:31;;;;;;;11.53;10.40;;;;;;;;;;5114607;28;20448;-73
2021/08/15 08:09:58;;;;;;;12.47;11.30;;;;;;;;;;5114082;28;20459;-73
2021/08/15 08:12:26;;;;;;;13.90;10.93;;;;;;;;;;5114624;28;20805;-72
2021/08/15 08:14:53;;;;;;;14.70;12.63;;;;;;;;;;5114703;28;20520;-72
2021/08/15 08:17:20;;;;;;;15.93;11.30;;;;;;;;;;5114576;28;20439;-72
2021/08/15 08:19:47;;;;;;;12.90;11.47;;;;;;;;;;5113843;28;20452;-72
2021/08/15 08:22:16;;;;;;;11.70;10.50;;;;;;;;;;5113702;28;21005;-73
2021/08/15 08:24:43;;;;;;;11.93;10.83;;;;;;;;;;5114055;28;20440;-73
2021/08/15 08:27:10;;;;;;;12.23;11.00;;;;;;;;;;5113830;28;20542;-73
2021/08/15 08:29:37;;;;;;;12.13;10.10;;;;;;;;;;5113529;28;20440;-73
2021/08/15 08:32:05;;;;;;;12.50;10.83;;;;;;;;;;5113423;28;20440;-72
2021/08/15 08:34:32;;;;;;;12.27;11.07;;;;;;;;;;5113989;28;20442;-72
2021/08/15 08:37:00;;;;;;;13.63;12.23;;;;;;;;;;5113552;28;20435;-72
2021/08/15 08:39:29;;;;;;;11.60;10.53;;;;;;;;;;5113975;28;20483;-73
2021/08/15 08:41:58;;;;;;;15.33;11.60;;;;;;;;;;5113771;28;20468;-73
2021/08/15 08:44:26;;;;;;;12.67;11.33;;;;;;;;;;5114037;28;20954;-73
2021/08/15 08:46:54;;;;;;;11.57;10.37;;;;;;;;;;5113812;28;20837;-72
2021/08/15 08:49:21;;;;;;;12.40;11.10;;;;;;;;;;5112660;28;20476;-73
2021/08/15 08:51:48;;;;;;;11.80;10.57;;;;;;;;;;5113662;28;20446;-72
2021/08/15 08:54:15;;;;;;;12.53;11.23;;;;;;;;;;5113492;28;20436;-72
2021/08/15 08:56:44;;;;;;;12.77;11.57;;;;;;;;;;5113452;28;20447;-72
2021/08/15 08:59:11;;;;;;;12.03;10.83;;;;;;;;;;5112654;28;20976;-73
2021/08/15 09:01:42;;;;;;;12.90;11.60;;;;;;;;;;5113216;28;20869;-72
2021/08/15 09:04:10;;;;;;;12.20;11.00;;;;;;;;;;5113145;28;20436;-72
2021/08/15 09:06:39;;;;;;;13.27;11.83;;;;;;;;;;5112750;28;20981;-73
2021/08/15 09:09:10;;;;;;;13.43;11.90;;;;;;;;;;5113130;28;20452;-72
2021/08/15 09:11:37;;;;;;;12.00;10.90;;;;;;;;;;5113808;28;20427;-72
2021/08/15 09:14:06;;;;;;;13.23;12.07;;;;;;;;;;5112308;28;21034;-74
2021/08/15 09:16:52;;;;;;;12.53;11.33;;;;;;;;;;5112656;28;20444;-72
2021/08/15 09:19:24;;;;;;;12.43;11.20;;;;;;;;;;5112965;28;20502;-73
2021/08/15 09:21:51;;;;;;;12.87;11.67;;;;;;;;;;5113651;28;20649;-73
2021/08/15 09:24:18;;;;;;;11.70;10.50;;;;;;;;;;5112118;28;20904;-73
2021/08/15 09:26:55;;;;;;;13.80;11.93;;;;;;;;;;5113047;28;20451;-72
2021/08/15 09:29:23;;;;;;;13.10;11.70;;;;;;;;;;5112668;28;20439;-72
2021/08/15 09:31:50;;;;;;;12.40;11.30;;;;;;;;;;5112550;28;20873;-72
2021/08/15 09:34:27;;;;;;;13.03;11.83;;;;;;;;;;5112435;28;20518;-72
2021/08/15 09:36:54;;;;;;;12.93;11.73;;;;;;;;;;5111209;28;20439;-73
2021/08/15 09:39:31;;;;;;;15.10;10.37;;;;;;;;;;5111425;28;20475;-72
2021/08/15 09:41:59;;;;;;;12.10;10.90;;;;;;;;;;5103801;28;20439;-72
2021/08/15 09:44:28;;;;;;;13.03;11.87;;;;;;;;;;5112404;28;20947;-73
2021/08/15 09:47:06;;;;;;;13.27;12.17;;;;;;;;;;5112951;28;20526;-74
2021/08/15 09:49:34;;;;;;;12.80;11.63;;;;;;;;;;5113080;28;20481;-73
2021/08/15 09:52:02;;;;;;;11.87;10.77;;;;;;;;;;5111895;28;20534;-73
2021/08/15 09:54:29;;;;;;;13.00;11.70;;;;;;;;;;5112848;28;20610;-73
2021/08/15 09:56:57;;;;;;;12.43;11.23;;;;;;;;;;5112739;28;20530;-75
2021/08/15 09:59:24;;;;;;;11.00;10.07;;;;;;;;;;5111773;28;20483;-75
2021/08/15 10:01:53;;;;;;;11.00;10.03;;;;;;;;;;5112540;28;20534;-75
2021/08/15 10:04:22;;;;;;;13.23;12.13;;;;;;;;;;5112029;28;20435;-73
2021/08/15 10:06:50;;;;;;;11.53;10.13;;;;;;;;;;5112629;28;20518;-73
2021/08/15 10:09:17;;;;;;;12.70;11.30;;;;;;;;;;5112074;28;20447;-76
2021/08/15 10:11:45;;;;;;;12.17;11.10;;;;;;;;;;5112706;28;20530;-72
2021/08/15 10:14:13;;;;;;;11.87;10.63;;;;;;;;;;5111925;28;20439;-73
2021/08/15 10:16:42;;;;;;;11.37;10.37;;;;;;;;;;5111529;28;20450;-71
2021/08/15 10:19:12;;;;;;;11.00;10.00;;;;;;;;;;5111136;28;20483;-72
2021/08/15 10:21:41;;;;;;;10.73;9.90;;;;;;;;;;5110541;28;20490;-71
2021/08/15 10:24:09;;;;;;;11.83;10.73;;;;;;;;;;5110734;28;20447;-73
2021/08/15 10:26:45;;;;;;;12.63;9.87;;;;;;;;;;5110625;28;20461;-72
2021/08/15 10:29:31;;;;;;;11.03;10.10;;;;;;;;;;5106670;28;20446;-72
2021/08/15 10:32:08;;;;;;;11.83;10.80;;;;;;;;;;5104108;28;20625;-73
2021/08/15 10:34:50;;;;;;;11.20;10.20;;;;;;;;;;5103077;28;20201;-73
2021/08/15 10:37:35;;;;;;;11.10;10.10;;;;;;;;;;5106802;28;20198;-72
2021/08/15 10:40:03;;;;;;;11.40;10.30;;;;;;;;;;5108834;28;20217;-72
2021/08/15 10:42:47;;;;;;;10.67;9.67;;;;;;;;;;5109454;28;20197;-72
2021/08/15 10:45:22;;;;;;;10.67;9.43;;;;;;;;;;5108761;28;20204;-73
2021/08/15 10:48:04;;;;;;;11.23;10.13;;;;;;;;;;5108428;28;20193;-73
2021/08/15 10:50:42;;;;;;;10.75;9.27;;;;;;;;;;5105331;28;20295;-72
2021/08/15 10:53:24;;;;;;;10.75;9.82;;;;;;;;;;5107867;28;20649;-73
2021/08/15 10:55:53;;;;;;;10.90;9.80;;;;;;;;;;5099563;28;20203;-74
2021/08/15 10:58:35;;;;;;;10.63;9.73;;;;;;;;;;5103500;28;20293;-73
2021/08/15 11:01:02;;;;;;;12.53;11.37;;;;;;;;;;5094160;28;20196;-73
2021/08/15 11:03:33;;;;;;;11.73;10.55;;;;;;;;;;5098789;28;20193;-73
2021/08/15 11:06:02;;;;;;;13.73;9.77;;;;;;;;;;5108734;28;20193;-73
2021/08/15 11:08:47;;;;;;;11.70;10.70;;;;;;;;;;5108318;28;20281;-73
2021/08/15 11:11:23;;;;;;;11.23;10.30;;;;;;;;;;5107877;28;20308;-72
2021/08/15 11:14:10;;;;;;;11.10;9.73;;;;;;;;;;5088536;28;20585;-73
2021/08/15 11:16:46;;;;;;;11.30;10.17;;;;;;;;;;5103453;28;20197;-72
2021/08/15 11:19:26;;;;;;;11.27;10.17;;;;;;;;;;5107625;28;20227;-73
2021/08/15 11:22:10;;;;;;;11.00;10.00;;;;;;;;;;5106788;28;20255;-73
2021/08/15 11:24:39;;;;;;;12.32;11.02;;;;;;;;;;5099181;28;20556;-73
2021/08/15 11:27:08;;;;;;;10.38;9.48;;;;;;;;;;5107186;28;20216;-72
2021/08/15 11:29:37;;;;;;;12.55;11.23;;;;;;;;;;5107785;28;20193;-71
2021/08/15 11:32:05;;;;;;;10.63;9.80;;;;;;;;;;5107442;28;20277;-72
2021/08/15 11:34:32;;;;;;;10.80;9.70;;;;;;;;;;5108442;28;20276;-72
2021/08/15 11:37:00;;;;;;;11.77;10.60;;;;;;;;;;5108076;28;20196;-73
2021/08/15 11:39:31;;;;;;;10.70;9.80;;;;;;;;;;5107876;28;20221;-73
2021/08/15 11:41:59;;;;;;;12.77;9.87;;;;;;;;;;5108245;28;20251;-73
2021/08/15 11:44:27;;;;;;;10.90;9.80;;;;;;;;;;5107900;28;20284;-73
2021/08/15 11:47:15;;;;;;;12.93;11.70;;;;;;;;;;5107887;28;20193;-73
2021/08/15 11:49:42;;;;;;;10.70;9.70;;;;;;;;;;5087998;28;20304;-73
2021/08/15 11:52:16;;;;;;;12.07;10.67;;;;;;;;;;5097759;28;20443;-73
2021/08/15 11:54:43;;;;;;;11.03;10.03;;;;;;;;;;5107525;28;21574;-73
2021/08/15 11:57:11;;;;;;;13.27;11.93;;;;;;;;;;5107131;28;20530;-73
2021/08/15 11:59:41;;;;;;;15.40;14.00;;;;;;;;;;5108980;28;20795;-73
2021/08/15 12:02:15;;;;;;;15.47;12.27;;;;;;;;;;5111570;28;20439;-73
2021/08/15 12:04:42;;;;;;;12.60;11.10;;;;;;;;;;5112091;28;20435;-73
2021/08/15 12:07:09;;;;;;;10.97;9.83;;;;;;;;;;5107258;28;20431;-73
2021/08/15 12:09:36;;;;;;;13.57;11.87;;;;;;;;;;5111430;28;20438;-73
2021/08/15 12:12:04;;;;;;;12.27;11.07;;;;;;;;;;5111865;28;20439;-72
2021/08/15 12:14:35;;;;;;;11.87;10.87;;;;;;;;;;5111644;28;20508;-73
2021/08/15 12:17:04;;;;;;;15.47;11.50;;;;;;;;;;5109026;28;20537;-73
2021/08/15 12:19:32;;;;;;;13.50;11.30;;;;;;;;;;5110104;28;20497;-73
2021/08/15 12:22:00;;;;;;;12.87;11.67;;;;;;;;;;5101318;28;20482;-72
2021/08/15 12:24:28;;;;;;;12.90;11.60;;;;;;;;;;5101219;28;20489;-73
2021/08/15 12:26:56;;;;;;;12.47;10.73;;;;;;;;;;5110485;28;20443;-73
2021/08/15 12:29:24;;;;;;;14.70;13.37;;;;;;;;;;5111197;28;20537;-73
2021/08/15 12:32:06;;;;;;;15.10;13.80;;;;;;;;;;5110680;28;20439;-73
2021/08/15 12:34:35;;;;;;;13.57;12.20;;;;;;;;;;5110670;28;20531;-72
2021/08/15 12:37:10;;;;;;;14.17;12.70;;;;;;;;;;5110884;28;20787;-72
2021/08/15 12:39:41;;;;;;;15.27;13.77;;;;;;;;;;5110576;28;20482;-72
2021/08/15 12:42:13;;;;;;;12.57;11.37;;;;;;;;;;5110151;28;20535;-72
2021/08/15 12:44:47;;;;;;;17.87;12.70;;;;;;;;;;5109646;28;20454;-72
2021/08/15 12:47:16;;;;;;;14.77;11.63;;;;;;;;;;5109897;28;20830;-72
2021/08/15 12:49:44;;;;;;;13.57;12.17;;;;;;;;;;5110625;28;20850;-72
2021/08/15 12:52:12;;;;;;;14.00;12.10;;;;;;;;;;5110060;28;20493;-72
2021/08/15 12:54:54;;;;;;;13.70;12.47;;;;;;;;;;5110301;28;20565;-72
2021/08/15 12:57:21;;;;;;;13.03;11.07;;;;;;;;;;5109952;28;20557;-72
2021/08/15 12:59:48;;;;;;;13.10;11.50;;;;;;;;;;5110637;28;20471;-73
2021/08/15 13:02:17;;;;;;;12.23;11.13;;;;;;;;;;5109194;28;20435;-71
2021/08/15 13:04:44;;;;;;;13.20;12.03;;;;;;;;;;5109903;28;20526;-72
2021/08/15 13:07:11;;;;;;;13.03;11.80;;;;;;;;;;5109755;28;20451;-73
2021/08/15 13:09:38;;;;;;;14.20;12.60;;;;;;;;;;5109971;28;20755;-72
2021/08/15 13:12:06;;;;;;;12.17;10.90;;;;;;;;;;5107716;28;20466;-71
2021/08/15 13:14:33;;;;;;;15.10;13.20;;;;;;;;;;5089651;28;20440;-72
2021/08/15 13:17:01;;;;;;;13.93;12.63;;;;;;;;;;5091486;28;20531;-72
2021/08/15 13:19:30;;;;;;;14.73;12.67;;;;;;;;;;5110061;28;20872;-72
2021/08/15 13:21:57;;;;;;;13.10;12.00;;;;;;;;;;5110006;28;20983;-72
2021/08/15 13:24:25;;;;;;;14.07;12.77;;;;;;;;;;5109519;28;20523;-72
2021/08/15 13:26:52;;;;;;;14.57;13.27;;;;;;;;;;5109953;28;20928;-72
2021/08/15 13:29:19;;;;;;;13.90;12.70;;;;;;;;;;5108227;28;21014;-71
2021/08/15 13:31:46;;;;;;;9.00;7.97;;;;;;;;;;5108485;28;20444;-72
2021/08/15 13:34:13;;;;;;;17.20;7.73;;;;;;;;;;5108453;28;20479;-72
2021/08/15 13:36:42;;;;;;;8.50;6.13;;;;;;;;;;5109964;28;20628;-73
2021/08/15 13:39:09;;;;;;;5.80;4.80;;;;;;;;;;5109163;28;20483;-72
2021/08/15 13:41:36;;;;;;;7.03;5.27;;;;;;;;;;5109422;28;20468;-72
2021/08/15 13:44:04;;;;;;;10.73;6.63;;;;;;;;;;5108682;28;20530;-72
2021/08/15 13:46:32;;;;;;;12.40;7.67;;;;;;;;;;5105811;28;20890;-72
2021/08/15 13:48:59;;;;;;;12.77;8.10;;;;;;;;;;5107829;28;20665;-71
2021/08/15 13:51:26;;;;;;;17.00;10.73;;;;;;;;;;5107707;28;20833;-73
2021/08/15 13:53:55;;;;;;;13.17;8.40;;;;;;;;;;5107724;28;20443;-72
2021/08/15 13:56:22;;;;;;;8.07;7.27;;;;;;;;;;5108550;28;20467;-71
2021/08/15 13:58:49;;;;;;;10.07;7.10;;;;;;;;;;5108860;28;20526;-72
2021/08/15 14:01:16;;;;;;;10.90;7.13;;;;;;;;;;5108425;28;20816;-71
2021/08/15 14:03:43;;;;;;;8.80;5.67;;;;;;;;;;5109113;28;20471;-72
2021/08/15 14:06:10;;;;;;;8.20;7.40;;;;;;;;;;5108358;28;20541;-71
2021/08/15 14:08:37;;;;;;;7.67;6.30;;;;;;;;;;5108698;28;20460;-74
2021/08/15 14:11:07;;;;;;;7.80;6.70;;;;;;;;;;5108911;28;20470;-72
2021/08/15 14:13:35;;;;;;;11.47;6.83;;;;;;;;;;5108513;28;20448;-73
2021/08/15 14:16:02;;;;;;;9.20;6.60;;;;;;;;;;5106668;28;20444;-71
2021/08/15 14:18:29;;;;;;;11.07;6.60;;;;;;;;;;5108119;28;20523;-71
2021/08/15 14:20:56;;;;;;;10.50;5.97;;;;;;;;;;5108133;28;20495;-71
2021/08/15 14:23:23;;;;;;;8.13;5.47;;;;;;;;;;5108010;28;20467;-72
2021/08/15 14:25:51;;;;;;;10.90;6.33;;;;;;;;;;5108979;28;20478;-72
2021/08/15 14:28:19;;;;;;;8.70;7.07;;;;;;;;;;5108002;28;20974;-71
2021/08/15 14:30:47;;;;;;;8.57;6.57;;;;;;;;;;5108946;28;21013;-72